Time;durP1;ratioP1;P1;durP2;ratioP2;P2;SDS_P1;SDS_P2;PMS_P1;PMS_P2;Temp;Humidity;BMP_temperature;BMP_pressure;BME280_temperature;BME280_humidity;BME280_pressure;Samples;Min_cycle;Max_cycle;Signal;HPM_P1;HPM_P2
2023/11/09 00:00:16;;;;;;;;;3.00;3.00;;;;;;;;5081770;27;45339;-81
2023/11/09 00:02:41;;;;;;;;;4.00;4.00;;;;;;;;5100187;27;45241;-82
2023/11/09 00:05:07;;;;;;;;;2.75;2.75;;;;;;;;5100624;27;46468;-82
2023/11/09 00:07:33;;;;;;;;;4.00;3.67;;;;;;;;5081435;27;45221;-82
2023/11/09 00:09:58;;;;;;;;;4.00;4.00;;;;;;;;5100562;27;45637;-82
2023/11/09 00:12:23;;;;;;;;;3.00;3.00;;;;;;;;5081547;27;46215;-82
2023/11/09 00:14:48;;;;;;;;;2.00;2.00;;;;;;;;5081741;27;47069;-83
2023/11/09 00:17:14;;;;;;;;;2.33;2.33;;;;;;;;5100308;27;45307;-82
2023/11/09 00:19:39;;;;;;;;;3.00;3.00;;;;;;;;5100367;27;45298;-82
2023/11/09 00:22:04;;;;;;;;;2.67;2.67;;;;;;;;5100134;27;45306;-82
2023/11/09 00:24:29;;;;;;;;;2.67;2.67;;;;;;;;5099938;27;45463;-82
2023/11/09 00:26:56;;;;;;;;;3.00;3.00;;;;;;;;5100090;27;45321;-82
2023/11/09 00:29:21;;;;;;;;;4.00;4.00;;;;;;;;5099896;27;45476;-83
2023/11/09 00:31:47;;;;;;;;;2.67;2.33;;;;;;;;5081635;27;45720;-82
2023/11/09 00:34:12;;;;;;;;;3.00;3.00;;;;;;;;5100738;27;45310;-83
2023/11/09 00:36:37;;;;;;;;;1.33;1.33;;;;;;;;5102109;27;45446;-83
2023/11/09 00:39:04;;;;;;;;;3.33;3.33;;;;;;;;5101604;27;45532;-83
2023/11/09 00:41:29;;;;;;;;;3.00;3.00;;;;;;;;5101905;27;45260;-83
2023/11/09 00:43:55;;;;;;;;;3.00;3.00;;;;;;;;5086346;27;48267;-83
2023/11/09 00:46:20;;;;;;;;;3.67;3.00;;;;;;;;5087397;27;45358;-83
2023/11/09 00:48:45;;;;;;;;;2.00;2.00;;;;;;;;5088890;27;45234;-82
2023/11/09 00:51:10;;;;;;;;;3.00;3.00;;;;;;;;5087882;27;47113;-82
2023/11/09 00:53:35;;;;;;;;;2.00;2.00;;;;;;;;5107708;27;45416;-82
2023/11/09 00:56:01;;;;;;;;;3.00;2.00;;;;;;;;5088905;27;45357;-82
2023/11/09 00:58:26;;;;;;;;;1.00;1.00;;;;;;;;5110063;27;45254;-83
2023/11/09 01:37:34;;;;;;;;;1.67;1.00;;;;;;;;5082128;28;45314;-82
2023/11/09 01:39:59;;;;;;;;;1.00;1.00;;;;;;;;5083003;28;46299;-82
2023/11/09 01:42:24;;;;;;;;;3.00;1.00;;;;;;;;5086118;28;45309;-83
2023/11/09 01:44:50;;;;;;;;;1.00;1.00;;;;;;;;5086123;28;45344;-82
2023/11/09 01:47:15;;;;;;;;;2.00;2.00;;;;;;;;5084578;28;45238;-82
2023/11/09 01:49:40;;;;;;;;;1.67;1.67;;;;;;;;5087650;28;45502;-82
2023/11/09 01:52:06;;;;;;;;;1.00;1.00;;;;;;;;5067176;28;45368;-83
2023/11/09 01:54:33;;;;;;;;;0.67;0.67;;;;;;;;5066792;28;45411;-82
2023/11/09 01:56:58;;;;;;;;;1.00;1.00;;;;;;;;5086815;28;45369;-82
2023/11/09 01:59:24;;;;;;;;;1.00;1.00;;;;;;;;5084710;28;45515;-82
2023/11/09 02:01:55;;;;;;;;;1.00;0.00;;;;;;;;5068926;28;45337;-83
2023/11/09 02:04:21;;;;;;;;;1.00;1.00;;;;;;;;5065674;28;45297;-82
2023/11/09 02:06:46;;;;;;;;;0.67;0.67;;;;;;;;5090396;28;45511;-82
2023/11/09 02:09:12;;;;;;;;;1.00;1.00;;;;;;;;5084897;28;45386;-83
2023/11/09 02:11:38;;;;;;;;;0.00;0.00;;;;;;;;5087708;28;45398;-82
2023/11/09 02:17:18;;;;;;;;;1.67;1.67;;;;;;;;5083480;28;45298;-83
2023/11/09 02:19:45;;;;;;;;;1.00;1.00;;;;;;;;5069695;28;48528;-83
2023/11/09 02:22:10;;;;;;;;;1.00;1.00;;;;;;;;5090597;28;45345;-82
2023/11/09 02:24:35;;;;;;;;;1.00;0.00;;;;;;;;5069197;28;45497;-83
2023/11/09 02:27:01;;;;;;;;;0.00;0.00;;;;;;;;5091416;28;44751;-84
2023/11/09 02:29:26;;;;;;;;;0.00;0.00;;;;;;;;5101491;27;46370;-84
2023/11/09 02:31:51;;;;;;;;;2.00;0.00;;;;;;;;5088707;27;45246;-82
2023/11/09 02:34:19;;;;;;;;;0.33;0.33;;;;;;;;5109376;27;45560;-83
2023/11/09 02:36:44;;;;;;;;;1.00;1.00;;;;;;;;5112644;27;45329;-84
2023/11/09 02:39:12;;;;;;;;;0.67;0.67;;;;;;;;5089204;27;48238;-82
2023/11/09 02:41:37;;;;;;;;;0.00;0.00;;;;;;;;5101846;27;45421;-82
2023/11/09 02:44:02;;;;;;;;;0.00;0.00;;;;;;;;5088548;27;45437;-82
2023/11/09 02:46:27;;;;;;;;;0.00;0.00;;;;;;;;5090425;27;46242;-83
2023/11/09 02:48:52;;;;;;;;;0.00;0.00;;;;;;;;5107806;27;45290;-83
2023/11/09 02:51:18;;;;;;;;;0.33;0.33;;;;;;;;5101720;27;45317;-83
2023/11/09 02:53:43;;;;;;;;;0.00;0.00;;;;;;;;5106394;27;45383;-84
2023/11/09 02:56:08;;;;;;;;;0.00;0.00;;;;;;;;5087490;27;46227;-84
2023/11/09 02:58:37;;;;;;;;;0.00;0.00;;;;;;;;5103233;27;46241;-83
2023/11/09 03:01:02;;;;;;;;;0.00;0.00;;;;;;;;5102196;27;45172;-82
2023/11/09 03:03:27;;;;;;;;;1.00;1.00;;;;;;;;5102860;27;45322;-83
2023/11/09 03:05:54;;;;;;;;;0.00;0.00;;;;;;;;5084910;27;46597;-84
2023/11/09 03:08:19;;;;;;;;;0.67;0.67;;;;;;;;5083798;27;47979;-84
2023/11/09 03:10:44;;;;;;;;;0.00;0.00;;;;;;;;5102599;27;45285;-82
2023/11/09 03:13:11;;;;;;;;;0.67;0.67;;;;;;;;5085100;27;45405;-83
2023/11/09 03:15:36;;;;;;;;;2.00;1.00;;;;;;;;5085340;27;45431;-83
2023/11/09 03:18:02;;;;;;;;;0.00;0.00;;;;;;;;5105618;27;46502;-83
2023/11/09 03:20:27;;;;;;;;;0.00;0.00;;;;;;;;5102767;27;45295;-83
2023/11/09 03:22:52;;;;;;;;;0.00;0.00;;;;;;;;5101910;27;45310;-82
2023/11/09 03:25:17;;;;;;;;;0.00;0.00;;;;;;;;5087419;27;45879;-83
2023/11/09 03:27:42;;;;;;;;;0.00;0.00;;;;;;;;5086739;27;47029;-83
2023/11/09 03:30:08;;;;;;;;;0.67;0.67;;;;;;;;5085811;27;45300;-83
2023/11/09 03:32:33;;;;;;;;;0.00;0.00;;;;;;;;5107188;27;45323;-83
2023/11/09 03:34:58;;;;;;;;;0.00;0.00;;;;;;;;5102648;27;45385;-83
2023/11/09 03:37:23;;;;;;;;;1.00;1.00;;;;;;;;5084642;27;48435;-84
2023/11/09 03:39:49;;;;;;;;;0.00;0.00;;;;;;;;5083660;27;45477;-84
2023/11/09 03:42:17;;;;;;;;;0.00;0.00;;;;;;;;5101829;27;45301;-83
2023/11/09 03:44:43;;;;;;;;;1.00;1.00;;;;;;;;5109919;27;45169;-82
2023/11/09 03:47:08;;;;;;;;;1.33;1.33;;;;;;;;5091802;27;47089;-83
2023/11/09 03:49:42;;;;;;;;;2.00;1.67;;;;;;;;5105787;27;45440;-83
2023/11/09 03:52:08;;;;;;;;;3.00;2.00;;;;;;;;5086073;27;45257;-83
2023/11/09 03:54:33;;;;;;;;;1.67;1.67;;;;;;;;5084904;27;45930;-83
2023/11/09 03:56:58;;;;;;;;;2.33;2.33;;;;;;;;5083947;27;48106;-83
2023/11/09 03:59:24;;;;;;;;;2.00;2.00;;;;;;;;5104043;27;45465;-83
2023/11/09 04:01:49;;;;;;;;;5.33;3.00;;;;;;;;5087794;27;45248;-83
2023/11/09 04:04:14;;;;;;;;;2.67;1.67;;;;;;;;5087984;27;45993;-83
2023/11/09 04:06:39;;;;;;;;;4.00;4.00;;;;;;;;5084269;27;47282;-83
2023/11/09 04:09:05;;;;;;;;;2.00;2.00;;;;;;;;5106799;27;45440;-83
2023/11/09 04:11:30;;;;;;;;;4.33;2.67;;;;;;;;5093179;27;45405;-84
2023/11/09 04:13:55;;;;;;;;;3.00;2.00;;;;;;;;5110524;27;45431;-83
2023/11/09 04:16:21;;;;;;;;;1.00;1.00;;;;;;;;5110586;27;45721;-84
2023/11/09 04:18:47;;;;;;;;;3.00;3.00;;;;;;;;5114507;27;45318;-83
2023/11/09 04:21:12;;;;;;;;;1.00;1.00;;;;;;;;5116886;27;45330;-83
2023/11/09 04:23:37;;;;;;;;;2.00;1.00;;;;;;;;5095030;27;46160;-83
2023/11/09 04:26:04;;;;;;;;;2.00;2.00;;;;;;;;5117566;27;45426;-83
2023/11/09 04:28:32;;;;;;;;;2.00;2.00;;;;;;;;5095379;27;45973;-83
2023/11/09 04:31:00;;;;;;;;;2.67;2.33;;;;;;;;5090854;27;45438;-83
2023/11/09 04:33:28;;;;;;;;;1.33;0.67;;;;;;;;5120352;27;45239;-83
2023/11/09 04:35:55;;;;;;;;;2.33;2.00;;;;;;;;5124075;27;45141;-83
2023/11/09 04:38:23;;;;;;;;;2.00;2.00;;;;;;;;5113268;27;45309;-82
2023/11/09 04:40:50;;;;;;;;;3.00;1.00;;;;;;;;5124691;27;45159;-82
2023/11/09 04:43:17;;;;;;;;;2.67;1.67;;;;;;;;5124971;27;44694;-83
2023/11/09 04:45:43;;;;;;;;;2.33;1.00;;;;;;;;5106708;27;47505;-83
2023/11/09 04:48:31;;;;;;;;;4.00;3.00;;;;;;;;5105090;27;45452;-83
2023/11/09 04:51:01;;;;;;;;;1.00;1.00;;;;;;;;5114104;27;45313;-83
2023/11/09 04:53:40;;;;;;;;;5.33;4.00;;;;;;;;5114776;27;45400;-83
2023/11/09 04:56:07;;;;;;;;;2.33;2.33;;;;;;;;5126508;27;45495;-83
2023/11/09 04:58:47;;;;;;;;;2.33;2.33;;;;;;;;5835625;22;44766;-83
2023/11/09 05:06:51;;;;;;;;;4.33;3.00;;;;;;;;5085912;28;45866;-83
2023/11/09 05:09:23;;;;;;;;;1.67;1.67;;;;;;;;5082024;28;45390;-83
2023/11/09 05:11:50;;;;;;;;;3.00;3.00;;;;;;;;5063800;28;45247;-83
2023/11/09 05:14:15;;;;;;;;;3.00;3.00;;;;;;;;5054057;28;46063;-82
2023/11/09 05:16:41;;;;;;;;;3.00;3.00;;;;;;;;5069479;28;47174;-83
2023/11/09 05:19:07;;;;;;;;;4.33;4.33;;;;;;;;5081531;28;44682;-84
2023/11/09 05:21:32;;;;;;;;;3.67;3.00;;;;;;;;5079505;28;45379;-84
2023/11/09 05:23:57;;;;;;;;;1.33;1.33;;;;;;;;5080707;28;45302;-83
2023/11/09 05:26:25;;;;;;;;;2.33;2.33;;;;;;;;5075120;28;45463;-82
2023/11/09 05:28:51;;;;;;;;;3.00;3.00;;;;;;;;5085589;28;44674;-83
2023/11/09 05:31:16;;;;;;;;;1.00;1.00;;;;;;;;5084760;28;44599;-83
2023/11/09 05:33:41;;;;;;;;;2.00;2.00;;;;;;;;5083307;28;44754;-82
2023/11/09 05:36:07;;;;;;;;;3.00;3.00;;;;;;;;5073349;28;45237;-82
2023/11/09 05:38:33;;;;;;;;;3.00;2.00;;;;;;;;5072566;28;45203;-82
2023/11/09 05:40:58;;;;;;;;;3.33;3.00;;;;;;;;5076400;28;45175;-83
2023/11/09 05:43:24;;;;;;;;;3.33;3.33;;;;;;;;5062055;28;46200;-83
2023/11/09 05:45:49;;;;;;;;;3.33;3.33;;;;;;;;5072612;28;45498;-82
2023/11/09 05:48:15;;;;;;;;;9.00;7.33;;;;;;;;5069401;28;45255;-82
2023/11/09 05:50:40;;;;;;;;;7.33;7.33;;;;;;;;5081839;28;44661;-83
2023/11/09 05:53:06;;;;;;;;;4.00;4.00;;;;;;;;5054699;28;46029;-82
2023/11/09 05:55:31;;;;;;;;;3.00;3.00;;;;;;;;5078937;28;46149;-82
2023/11/09 05:57:59;;;;;;;;;3.00;2.00;;;;;;;;5073835;28;45293;-82
2023/11/09 06:00:28;;;;;;;;;3.67;3.67;;;;;;;;5080708;28;44885;-82
2023/11/09 06:02:53;;;;;;;;;0.67;0.67;;;;;;;;5073239;28;45155;-82
2023/11/09 06:05:18;;;;;;;;;2.67;2.67;;;;;;;;5073244;28;45244;-82
2023/11/09 06:07:44;;;;;;;;;3.00;2.00;;;;;;;;5057315;28;45249;-83
2023/11/09 06:10:10;;;;;;;;;5.33;5.00;;;;;;;;5077139;28;45281;-84
2023/11/09 06:12:36;;;;;;;;;5.67;3.00;;;;;;;;5057436;28;46125;-84
2023/11/09 06:15:02;;;;;;;;;2.67;2.67;;;;;;;;5076462;28;45405;-82
2023/11/09 06:17:27;;;;;;;;;6.00;5.00;;;;;;;;5069093;28;45379;-83
2023/11/09 06:19:53;;;;;;;;;2.33;2.33;;;;;;;;5047824;28;45341;-83
2023/11/09 06:22:18;;;;;;;;;6.00;3.00;;;;;;;;5068366;28;45470;-82
2023/11/09 06:24:43;;;;;;;;;4.67;3.33;;;;;;;;5067453;28;45347;-84
2023/11/09 06:27:08;;;;;;;;;5.00;5.00;;;;;;;;5062008;28;45335;-84
2023/11/09 06:29:34;;;;;;;;;6.67;5.67;;;;;;;;5054555;28;45501;-83
2023/11/09 06:31:59;;;;;;;;;3.33;3.33;;;;;;;;5047353;28;45262;-83
2023/11/09 06:34:26;;;;;;;;;4.33;3.00;;;;;;;;5044206;28;45246;-82
2023/11/09 06:36:51;;;;;;;;;5.67;4.00;;;;;;;;5044727;28;45290;-84
2023/11/09 06:39:17;;;;;;;;;4.33;4.33;;;;;;;;5048559;28;45365;-83
2023/11/09 06:41:47;;;;;;;;;6.33;6.33;;;;;;;;5047056;28;46796;-85
2023/11/09 06:44:12;;;;;;;;;6.00;5.33;;;;;;;;5060562;28;47319;-83
2023/11/09 06:46:38;;;;;;;;;5.00;5.00;;;;;;;;5067189;28;45383;-84
2023/11/09 06:49:04;;;;;;;;;7.00;7.00;;;;;;;;5044597;28;45469;-86
2023/11/09 06:51:29;;;;;;;;;6.67;5.00;;;;;;;;5062647;28;45310;-85
2023/11/09 06:53:55;;;;;;;;;6.33;5.33;;;;;;;;5060566;28;47183;-86
2023/11/09 06:56:20;;;;;;;;;6.67;6.67;;;;;;;;5064787;28;45277;-83
2023/11/09 06:58:46;;;;;;;;;5.00;4.33;;;;;;;;5043567;28;45315;-83
2023/11/09 07:01:11;;;;;;;;;7.00;7.00;;;;;;;;5062835;28;45209;-82
2023/11/09 07:03:36;;;;;;;;;9.67;9.00;;;;;;;;5062581;28;46409;-81
2023/11/09 07:06:01;;;;;;;;;9.00;8.00;;;;;;;;5042907;28;45262;-85
2023/11/09 07:08:28;;;;;;;;;9.00;7.00;;;;;;;;5060699;28;45565;-79
2023/11/09 07:10:54;;;;;;;;;8.00;8.00;;;;;;;;5059442;28;45207;-81
2023/11/09 07:13:19;;;;;;;;;14.67;13.00;;;;;;;;5042211;28;47411;-79
2023/11/09 07:15:47;;;;;;;;;9.67;9.33;;;;;;;;5041352;28;45390;-79
2023/11/09 07:18:12;;;;;;;;;8.00;7.33;;;;;;;;5060506;28;45300;-79
2023/11/09 07:20:37;;;;;;;;;7.67;7.00;;;;;;;;5060394;28;45363;-79
2023/11/09 07:23:06;;;;;;;;;6.33;6.33;;;;;;;;5059394;28;45388;-79
2023/11/09 07:25:31;;;;;;;;;10.33;8.33;;;;;;;;5060023;28;45323;-79
2023/11/09 07:27:57;;;;;;;;;5.67;5.67;;;;;;;;5059551;28;45171;-82
2023/11/09 07:30:22;;;;;;;;;6.00;5.33;;;;;;;;5042067;28;46995;-80
2023/11/09 07:32:47;;;;;;;;;5.33;5.33;;;;;;;;5041674;28;47278;-80
2023/11/09 07:35:13;;;;;;;;;5.00;5.00;;;;;;;;5058988;28;45467;-80
2023/11/09 07:37:38;;;;;;;;;7.00;6.00;;;;;;;;5040354;28;45265;-80
2023/11/09 07:40:04;;;;;;;;;5.00;5.00;;;;;;;;5058044;28;46590;-79
2023/11/09 07:42:31;;;;;;;;;6.67;5.00;;;;;;;;5044545;28;48488;-82
2023/11/09 07:44:56;;;;;;;;;5.67;4.67;;;;;;;;5059447;28;45390;-80
2023/11/09 07:47:22;;;;;;;;;3.00;3.00;;;;;;;;5061582;28;45450;-79
2023/11/09 07:49:47;;;;;;;;;5.00;4.00;;;;;;;;5057654;28;45411;-84
2023/11/09 07:52:14;;;;;;;;;3.33;3.33;;;;;;;;5058117;28;46337;-81
2023/11/09 07:54:39;;;;;;;;;2.00;2.00;;;;;;;;5040959;28;45493;-78
2023/11/09 07:57:06;;;;;;;;;6.00;5.00;;;;;;;;5041522;28;45365;-81
2023/11/09 07:59:32;;;;;;;;;5.67;5.67;;;;;;;;5059331;28;45219;-81
2023/11/09 08:01:58;;;;;;;;;5.33;5.33;;;;;;;;5059376;28;46208;-84
2023/11/09 08:04:27;;;;;;;;;6.33;5.33;;;;;;;;5041522;28;45854;-85
2023/11/09 08:06:52;;;;;;;;;9.67;6.00;;;;;;;;5060399;28;45447;-86
2023/11/09 08:09:19;;;;;;;;;4.33;4.33;;;;;;;;5042363;28;46187;-84
2023/11/09 08:11:44;;;;;;;;;5.00;5.00;;;;;;;;5058557;28;46246;-83
2023/11/09 08:14:10;;;;;;;;;5.67;5.67;;;;;;;;5041170;28;45428;-81
2023/11/09 08:16:35;;;;;;;;;5.67;5.33;;;;;;;;5058819;28;45489;-83
2023/11/09 08:19:03;;;;;;;;;5.00;5.00;;;;;;;;5048187;28;48057;-79
2023/11/09 08:21:29;;;;;;;;;9.33;8.33;;;;;;;;5058827;28;45587;-83
2023/11/09 08:23:54;;;;;;;;;5.33;5.33;;;;;;;;5060978;28;45933;-80
2023/11/09 08:26:19;;;;;;;;;8.00;6.00;;;;;;;;5061645;28;45441;-77
2023/11/09 08:28:44;;;;;;;;;7.00;7.00;;;;;;;;5045053;28;46247;-79
2023/11/09 08:31:09;;;;;;;;;5.33;5.33;;;;;;;;5060914;28;46677;-78
2023/11/09 08:33:35;;;;;;;;;7.33;5.00;;;;;;;;5059347;28;45412;-79
2023/11/09 08:36:04;;;;;;;;;4.00;4.00;;;;;;;;5042467;28;45423;-78
2023/11/09 08:38:33;;;;;;;;;4.00;4.00;;;;;;;;5059726;28;45683;-78
2023/11/09 08:40:58;;;;;;;;;5.67;5.00;;;;;;;;5060269;28;46964;-77
2023/11/09 08:43:24;;;;;;;;;10.00;8.00;;;;;;;;5042989;28;45381;-76
2023/11/09 08:45:49;;;;;;;;;6.33;3.67;;;;;;;;5061519;28;45554;-77
2023/11/09 08:48:14;;;;;;;;;4.67;4.67;;;;;;;;5040319;28;46069;-77
2023/11/09 08:50:41;;;;;;;;;5.00;5.00;;;;;;;;5058965;28;45580;-75
2023/11/09 08:53:07;;;;;;;;;5.00;4.00;;;;;;;;5041692;28;45427;-76
2023/11/09 08:55:32;;;;;;;;;6.00;5.00;;;;;;;;5060434;28;45476;-76
2023/11/09 08:58:01;;;;;;;;;5.00;4.00;;;;;;;;5060450;28;45395;-75
2023/11/09 09:00:31;;;;;;;;;5.33;5.33;;;;;;;;5060114;28;46190;-77
2023/11/09 09:02:56;;;;;;;;;6.00;4.00;;;;;;;;5042110;28;45440;-77
2023/11/09 09:05:23;;;;;;;;;6.33;4.33;;;;;;;;5061491;28;45321;-75
2023/11/09 09:07:49;;;;;;;;;7.00;6.33;;;;;;;;5042011;28;46403;-75
2023/11/09 09:10:16;;;;;;;;;6.00;5.00;;;;;;;;5060646;28;46371;-76
2023/11/09 09:12:44;;;;;;;;;4.33;3.67;;;;;;;;5061054;28;45288;-78
2023/11/09 09:15:13;;;;;;;;;6.00;4.00;;;;;;;;5061052;28;45456;-76
2023/11/09 09:17:40;;;;;;;;;3.33;3.00;;;;;;;;5041884;28;46059;-75
2023/11/09 09:20:07;;;;;;;;;7.00;6.50;;;;;;;;5059891;28;45554;-77
2023/11/09 09:22:33;;;;;;;;;7.33;5.33;;;;;;;;5060382;28;45442;-76
2023/11/09 09:24:58;;;;;;;;;9.67;8.00;;;;;;;;5059267;28;45561;-77
2023/11/09 09:27:24;;;;;;;;;5.33;5.00;;;;;;;;5060255;28;45635;-77
2023/11/09 09:29:49;;;;;;;;;4.00;3.67;;;;;;;;5047435;28;45557;-77
2023/11/09 09:32:15;;;;;;;;;5.50;4.00;;;;;;;;5037577;28;45419;-78
2023/11/09 09:34:41;;;;;;;;;6.67;6.00;;;;;;;;5040571;28;45366;-76
2023/11/09 09:37:10;;;;;;;;;5.00;5.00;;;;;;;;5038916;28;47169;-75
2023/11/09 09:39:36;;;;;;;;;5.33;5.33;;;;;;;;5059153;28;45232;-77
2023/11/09 09:42:02;;;;;;;;;5.00;3.00;;;;;;;;5058900;28;45296;-76
2023/11/09 09:44:29;;;;;;;;;4.67;4.00;;;;;;;;5042255;28;45266;-79
2023/11/09 09:46:55;;;;;;;;;5.00;5.00;;;;;;;;5059251;28;45490;-78
2023/11/09 09:49:21;;;;;;;;;6.00;6.00;;;;;;;;5041337;28;47323;-80
2023/11/09 09:51:49;;;;;;;;;7.33;4.00;;;;;;;;5059365;28;45847;-80
2023/11/09 09:54:16;;;;;;;;;7.00;4.67;;;;;;;;5059606;28;45309;-79
2023/11/09 09:56:41;;;;;;;;;6.00;6.00;;;;;;;;5057479;28;46202;-80
2023/11/09 09:59:07;;;;;;;;;7.33;6.00;;;;;;;;5059128;28;45562;-81
2023/11/09 10:01:34;;;;;;;;;9.33;8.33;;;;;;;;5058731;28;45258;-79
2023/11/09 10:03:59;;;;;;;;;6.33;6.00;;;;;;;;5057487;28;45492;-79
2023/11/09 10:06:25;;;;;;;;;4.00;4.00;;;;;;;;5059701;28;45399;-79
2023/11/09 10:08:50;;;;;;;;;6.67;4.00;;;;;;;;5041234;28;47231;-80
2023/11/09 10:11:15;;;;;;;;;10.33;5.33;;;;;;;;5059277;28;45415;-79
2023/11/09 10:13:47;;;;;;;;;6.00;5.00;;;;;;;;5060805;28;45403;-78
2023/11/09 10:16:14;;;;;;;;;7.33;6.67;;;;;;;;5060737;28;45540;-80
2023/11/09 10:18:39;;;;;;;;;4.33;4.33;;;;;;;;5058963;28;45641;-84
2023/11/09 10:21:06;;;;;;;;;6.33;4.00;;;;;;;;5041614;28;45317;-79
2023/11/09 10:23:32;;;;;;;;;4.67;4.67;;;;;;;;5059711;28;45394;-80
2023/11/09 10:25:58;;;;;;;;;5.67;5.00;;;;;;;;5040913;28;46061;-82
2023/11/09 10:28:28;;;;;;;;;4.00;3.67;;;;;;;;5058006;28;46106;-80
2023/11/09 10:30:53;;;;;;;;;5.33;5.33;;;;;;;;5059450;28;45571;-79
2023/11/09 10:33:19;;;;;;;;;5.00;5.00;;;;;;;;5040632;28;45491;-79
2023/11/09 10:35:45;;;;;;;;;10.00;6.33;;;;;;;;5059166;28;45388;-79
2023/11/09 10:38:16;;;;;;;;;3.00;3.00;;;;;;;;5040709;28;47217;-79
2023/11/09 10:40:41;;;;;;;;;5.00;3.67;;;;;;;;5041193;28;46031;-80
2023/11/09 10:43:07;;;;;;;;;7.00;5.33;;;;;;;;5059662;28;45579;-80
2023/11/09 10:45:36;;;;;;;;;3.00;3.00;;;;;;;;5059164;28;45631;-80
2023/11/09 10:48:04;;;;;;;;;6.00;4.00;;;;;;;;5058737;28;45682;-80
2023/11/09 10:50:29;;;;;;;;;2.67;2.67;;;;;;;;5059920;28;45292;-79
2023/11/09 10:52:56;;;;;;;;;5.33;4.33;;;;;;;;5059677;28;45427;-80
2023/11/09 10:55:22;;;;;;;;;6.67;5.33;;;;;;;;5059594;28;45528;-80
2023/11/09 10:57:48;;;;;;;;;6.67;5.67;;;;;;;;5059147;28;46060;-79
2023/11/09 11:00:26;;;;;;;;;4.00;4.00;;;;;;;;5058975;28;45293;-79
2023/11/09 11:02:53;;;;;;;;;4.67;4.33;;;;;;;;5058830;28;45398;-80
2023/11/09 11:05:22;;;;;;;;;6.00;4.00;;;;;;;;5058915;28;45463;-80
2023/11/09 11:07:50;;;;;;;;;5.00;5.00;;;;;;;;5058257;28;46152;-79
2023/11/09 11:10:17;;;;;;;;;5.00;5.00;;;;;;;;5042618;28;45430;-81
2023/11/09 11:12:43;;;;;;;;;4.33;4.00;;;;;;;;5061186;28;45327;-80
2023/11/09 11:15:10;;;;;;;;;4.33;3.33;;;;;;;;5062919;28;45311;-79
2023/11/09 11:17:51;;;;;;;;;2.00;2.00;;;;;;;;5060633;28;45174;-83
2023/11/09 11:20:37;;;;;;;;;3.33;2.33;;;;;;;;5062004;28;45392;-81
2023/11/09 11:23:02;;;;;;;;;5.67;4.33;;;;;;;;5043378;28;45426;-82
2023/11/09 11:25:40;;;;;;;;;5.33;3.67;;;;;;;;5060092;28;45328;-80
2023/11/09 11:28:11;;;;;;;;;7.33;5.67;;;;;;;;5060058;28;45260;-81
2023/11/09 11:30:39;;;;;;;;;4.33;3.00;;;;;;;;5058724;28;45461;-81
2023/11/09 11:33:12;;;;;;;;;4.67;4.67;;;;;;;;5061035;28;45276;-82
2023/11/09 11:35:42;;;;;;;;;3.67;2.33;;;;;;;;5061329;28;45518;-81
2023/11/09 11:38:14;;;;;;;;;5.33;4.00;;;;;;;;5042372;28;48160;-80
2023/11/09 11:40:40;;;;;;;;;5.00;4.33;;;;;;;;5059960;28;45454;-82
2023/11/09 11:43:06;;;;;;;;;4.33;4.00;;;;;;;;5044636;28;45234;-83
2023/11/09 11:45:31;;;;;;;;;5.00;4.00;;;;;;;;5062702;28;45298;-83
2023/11/09 11:48:00;;;;;;;;;3.33;3.33;;;;;;;;5041798;28;48464;-80
2023/11/09 11:50:26;;;;;;;;;4.00;2.67;;;;;;;;5060666;28;45343;-80
2023/11/09 11:52:58;;;;;;;;;4.33;4.00;;;;;;;;5041642;28;45371;-81
2023/11/09 11:55:28;;;;;;;;;5.00;5.00;;;;;;;;5040478;28;46551;-82
2023/11/09 11:58:04;;;;;;;;;3.00;3.00;;;;;;;;5058400;28;45356;-80
2023/11/09 12:00:40;;;;;;;;;5.00;3.33;;;;;;;;5057903;28;45282;-80
2023/11/09 12:03:09;;;;;;;;;6.67;5.33;;;;;;;;5057585;28;45582;-83
2023/11/09 12:05:34;;;;;;;;;5.00;4.00;;;;;;;;5059440;28;45439;-80
2023/11/09 12:08:01;;;;;;;;;6.67;6.33;;;;;;;;5059560;28;45293;-80
2023/11/09 12:10:27;;;;;;;;;4.00;4.00;;;;;;;;5041169;28;45989;-79
2023/11/09 12:12:54;;;;;;;;;4.00;3.33;;;;;;;;5058989;28;45489;-81
2023/11/09 12:15:25;;;;;;;;;3.33;3.33;;;;;;;;5058757;28;45192;-79
2023/11/09 12:17:51;;;;;;;;;3.33;3.00;;;;;;;;5058194;28;45550;-83
2023/11/09 12:20:17;;;;;;;;;2.67;2.67;;;;;;;;5058583;28;45500;-82
2023/11/09 12:22:47;;;;;;;;;5.33;5.33;;;;;;;;5059472;28;45336;-82
2023/11/09 12:25:12;;;;;;;;;3.67;3.67;;;;;;;;5040922;28;46001;-85
2023/11/09 12:27:38;;;;;;;;;4.00;4.00;;;;;;;;5040681;28;48573;-84
2023/11/09 12:30:03;;;;;;;;;6.00;4.00;;;;;;;;5058083;28;45333;-85
2023/11/09 12:32:29;;;;;;;;;5.67;4.33;;;;;;;;5059907;28;45296;-81
2023/11/09 12:34:59;;;;;;;;;8.33;6.67;;;;;;;;5058682;28;45707;-84
2023/11/09 12:37:30;;;;;;;;;4.33;4.00;;;;;;;;5062853;28;46559;-80
2023/11/09 12:39:56;;;;;;;;;7.33;5.67;;;;;;;;5059273;28;45307;-83
2023/11/09 12:42:24;;;;;;;;;3.33;1.67;;;;;;;;5063826;28;45625;-81
2023/11/09 12:44:51;;;;;;;;;1.67;1.67;;;;;;;;5045027;28;46423;-82
2023/11/09 12:47:20;;;;;;;;;4.00;3.33;;;;;;;;5043738;28;47749;-82
2023/11/09 12:49:47;;;;;;;;;3.67;3.33;;;;;;;;5063448;28;45346;-84
2023/11/09 12:52:16;;;;;;;;;5.00;5.00;;;;;;;;5059967;28;45334;-85
2023/11/09 12:54:43;;;;;;;;;3.33;3.33;;;;;;;;5041236;28;46234;-83
2023/11/09 12:57:11;;;;;;;;;4.67;4.00;;;;;;;;5061286;28;45352;-83
2023/11/09 12:59:42;;;;;;;;;4.00;4.00;;;;;;;;5059965;28;45485;-83
2023/11/09 13:02:14;;;;;;;;;10.33;8.33;;;;;;;;5048532;28;45292;-85
2023/11/09 13:04:46;;;;;;;;;4.67;4.67;;;;;;;;5041303;28;46277;-80
2023/11/09 13:07:12;;;;;;;;;4.00;3.67;;;;;;;;5052028;28;45569;-79
2023/11/09 13:09:38;;;;;;;;;7.00;7.00;;;;;;;;5057532;28;45451;-78
2023/11/09 13:14:54;;;;;;;;;9.33;6.67;;;;;;;;5061059;28;45518;-79
2023/11/09 13:17:19;;;;;;;;;8.67;8.67;;;;;;;;5061616;28;46219;-78
2023/11/09 13:19:51;;;;;;;;;4.00;4.00;;;;;;;;5060512;28;45560;-79
2023/11/09 13:22:17;;;;;;;;;5.00;5.00;;;;;;;;5058514;28;45194;-80
2023/11/09 13:24:43;;;;;;;;;5.33;4.67;;;;;;;;5060541;28;45335;-79
2023/11/09 13:27:16;;;;;;;;;4.33;4.33;;;;;;;;5043446;28;48097;-81
2023/11/09 13:29:43;;;;;;;;;4.67;4.67;;;;;;;;5044002;28;45494;-83
2023/11/09 13:32:08;;;;;;;;;2.00;1.00;;;;;;;;5062336;28;45296;-80
2023/11/09 13:34:47;;;;;;;;;2.00;2.00;;;;;;;;5062964;28;45182;-84
2023/11/09 13:37:20;;;;;;;;;3.67;3.67;;;;;;;;5062177;28;45537;-86
2023/11/09 13:40:07;;;;;;;;;5.00;5.00;;;;;;;;5062180;28;45243;-86
2023/11/09 13:42:37;;;;;;;;;5.00;4.33;;;;;;;;5063571;28;45377;-85
2023/11/09 13:45:15;;;;;;;;;4.67;4.67;;;;;;;;5044932;28;46308;-85
2023/11/09 13:47:43;;;;;;;;;3.00;3.00;;;;;;;;5060855;28;45448;-83
2023/11/09 13:50:11;;;;;;;;;2.67;2.00;;;;;;;;5059145;28;45356;-85
2023/11/09 13:52:45;;;;;;;;;2.00;2.00;;;;;;;;5044058;28;45277;-85
2023/11/09 13:55:29;;;;;;;;;2.00;1.00;;;;;;;;5061086;28;45284;-86
2023/11/09 13:57:55;;;;;;;;;3.33;3.33;;;;;;;;5063015;28;45544;-82
2023/11/09 14:00:35;;;;;;;;;3.00;3.00;;;;;;;;5048122;28;45417;-81
2023/11/09 14:03:01;;;;;;;;;2.00;1.67;;;;;;;;5068626;28;45518;-82
2023/11/09 14:05:26;;;;;;;;;2.67;2.33;;;;;;;;5044283;28;46520;-81
2023/11/09 14:07:54;;;;;;;;;3.00;1.00;;;;;;;;5060968;28;45307;-83
2023/11/09 14:10:28;;;;;;;;;1.00;1.00;;;;;;;;5061522;28;45505;-82
2023/11/09 14:12:53;;;;;;;;;1.33;1.33;;;;;;;;5064189;28;45673;-81
2023/11/09 14:17:51;;;;;;;;;1.67;1.67;;;;;;;;5065354;28;45895;-81
2023/11/09 14:20:30;;;;;;;;;1.33;1.33;;;;;;;;5045996;28;45408;-83
2023/11/09 14:22:56;;;;;;;;;2.00;0.67;;;;;;;;5044059;28;45252;-86
2023/11/09 14:25:22;;;;;;;;;2.00;2.00;;;;;;;;5043801;28;47052;-84
2023/11/09 14:27:48;;;;;;;;;1.33;1.33;;;;;;;;5044846;28;45680;-83
2023/11/09 14:30:13;;;;;;;;;2.00;2.00;;;;;;;;5061613;28;45308;-85
2023/11/09 14:32:38;;;;;;;;;1.33;1.33;;;;;;;;5061124;28;45230;-84
2023/11/09 14:35:04;;;;;;;;;3.33;2.33;;;;;;;;5061472;28;45511;-83
2023/11/09 14:37:31;;;;;;;;;2.33;2.33;;;;;;;;5043132;28;47104;-84
2023/11/09 14:40:16;;;;;;;;;0.33;0.33;;;;;;;;5060941;28;45367;-84
2023/11/09 14:42:42;;;;;;;;;1.00;1.00;;;;;;;;5061162;28;45369;-83
2023/11/09 14:45:09;;;;;;;;;1.33;1.33;;;;;;;;5060671;28;45317;-79
2023/11/09 14:47:41;;;;;;;;;0.33;0.33;;;;;;;;5060658;28;46434;-78
2023/11/09 14:50:10;;;;;;;;;0.00;0.00;;;;;;;;5061047;28;45343;-78
2023/11/09 14:53:01;;;;;;;;;1.00;1.00;;;;;;;;5060841;28;45280;-79
2023/11/09 14:55:30;;;;;;;;;0.00;0.00;;;;;;;;5044008;28;47168;-77
2023/11/09 14:58:00;;;;;;;;;0.33;0.33;;;;;;;;5060808;28;47018;-79
2023/11/09 15:00:26;;;;;;;;;0.67;0.33;;;;;;;;5042340;28;45745;-78
2023/11/09 15:02:52;;;;;;;;;0.00;0.00;;;;;;;;5060792;28;45478;-79
2023/11/09 15:05:22;;;;;;;;;2.00;2.00;;;;;;;;5042148;28;46002;-80
2023/11/09 15:07:48;;;;;;;;;1.67;0.67;;;;;;;;5059709;28;46197;-80
2023/11/09 15:10:13;;;;;;;;;0.33;0.33;;;;;;;;5060259;28;45324;-81
2023/11/09 15:12:39;;;;;;;;;1.00;1.00;;;;;;;;5042551;28;45345;-80
2023/11/09 15:15:08;;;;;;;;;1.67;1.33;;;;;;;;5060855;28;45416;-81
2023/11/09 15:17:33;;;;;;;;;1.00;1.00;;;;;;;;5061288;28;45960;-80
2023/11/09 15:19:59;;;;;;;;;3.00;2.00;;;;;;;;5043407;28;45431;-83
2023/11/09 15:22:26;;;;;;;;;1.00;0.00;;;;;;;;5062919;28;45446;-84
2023/11/09 15:24:51;;;;;;;;;1.67;1.67;;;;;;;;5064779;28;46068;-80
2023/11/09 15:27:18;;;;;;;;;0.00;0.00;;;;;;;;5062442;28;48298;-82
2023/11/09 15:29:44;;;;;;;;;0.00;0.00;;;;;;;;5080308;28;45271;-79
2023/11/09 15:32:12;;;;;;;;;1.33;0.00;;;;;;;;5080072;28;45261;-81